sensor_id;sensor_type;location;lat;lon;timestamp;temperature;humidity
2459;DHT22;1241;50.920;6.936;2023-02-01T00:00:30;7.90;99.90
2459;DHT22;1241;50.920;6.936;2023-02-01T00:02:58;7.80;99.90
2459;DHT22;1241;50.920;6.936;2023-02-01T00:05:24;7.70;99.90
2459;DHT22;1241;50.920;6.936;2023-02-01T00:07:50;7.70;99.90
2459;DHT22;1241;50.920;6.936;2023-02-01T00:10:16;7.70;99.90
2459;DHT22;1241;50.920;6.936;2023-02-01T00:12:41;7.60;99.90
2459;DHT22;1241;50.920;6.936;2023-02-01T00:15:08;7.40;99.90
2459;DHT22;1241;50.920;6.936;2023-02-01T00:17:34;7.30;99.90
2459;DHT22;1241;50.920;6.936;2023-02-01T00:19:59;7.20;99.90
2459;DHT22;1241;50.920;6.936;2023-02-01T00:22:25;7.20;99.90
2459;DHT22;1241;50.920;6.936;2023-02-01T00:24:51;7.10;99.90
2459;DHT22;1241;50.920;6.936;2023-02-01T00:27:16;7.00;99.90
2459;DHT22;1241;50.920;6.936;2023-02-01T00:29:45;6.90;99.90
2459;DHT22;1241;50.920;6.936;2023-02-01T00:32:12;6.90;99.90
2459;DHT22;1241;50.920;6.936;2023-02-01T00:34:37;6.80;99.90
2459;DHT22;1241;50.920;6.936;2023-02-01T00:37:03;6.80;99.90
2459;DHT22;1241;50.920;6.936;2023-02-01T00:39:29;6.70;99.90
2459;DHT22;1241;50.920;6.936;2023-02-01T00:41:55;6.70;99.90
2459;DHT22;1241;50.920;6.936;2023-02-01T00:44:20;6.70;99.90
2459;DHT22;1241;50.920;6.936;2023-02-01T00:46:46;6.70;99.90
2459;DHT22;1241;50.920;6.936;2023-02-01T00:49:12;6.70;99.90
2459;DHT22;1241;50.920;6.936;2023-02-01T00:51:37;6.80;99.90
2459;DHT22;1241;50.920;6.936;2023-02-01T00:54:03;6.90;99.90
2459;DHT22;1241;50.920;6.936;2023-02-01T00:56:29;7.00;99.90
2459;DHT22;1241;50.920;6.936;2023-02-01T00:58:55;7.00;99.90
2459;DHT22;1241;50.920;6.936;2023-02-01T01:01:24;7.10;99.90
2459;DHT22;1241;50.920;6.936;2023-02-01T01:03:53;7.00;99.90
2459;DHT22;1241;50.920;6.936;2023-02-01T01:06:22;7.10;99.90
2459;DHT22;1241;50.920;6.936;2023-02-01T01:08:48;7.10;99.90
2459;DHT22;1241;50.920;6.936;2023-02-01T01:11:18;7.20;99.90
2459;DHT22;1241;50.920;6.936;2023-02-01T01:13:47;7.20;99.90
2459;DHT22;1241;50.920;6.936;2023-02-01T01:16:13;7.40;99.90
2459;DHT22;1241;50.920;6.936;2023-02-01T01:18:39;7.30;99.90
2459;DHT22;1241;50.920;6.936;2023-02-01T01:21:07;7.30;99.90
2459;DHT22;1241;50.920;6.936;2023-02-01T01:23:34;7.30;99.90
2459;DHT22;1241;50.920;6.936;2023-02-01T01:26:04;7.40;99.90
2459;DHT22;1241;50.920;6.936;2023-02-01T01:28:30;7.40;99.90
2459;DHT22;1241;50.920;6.936;2023-02-01T01:30:56;7.40;99.90
2459;DHT22;1241;50.920;6.936;2023-02-01T01:33:22;7.40;99.90
2459;DHT22;1241;50.920;6.936;2023-02-01T01:35:47;7.40;99.90
2459;DHT22;1241;50.920;6.936;2023-02-01T01:38:13;7.30;99.90
2459;DHT22;1241;50.920;6.936;2023-02-01T01:40:39;7.20;99.90
2459;DHT22;1241;50.920;6.936;2023-02-01T01:43:14;7.20;99.90
2459;DHT22;1241;50.920;6.936;2023-02-01T01:45:40;7.10;99.90
2459;DHT22;1241;50.920;6.936;2023-02-01T01:48:11;7.00;99.90
2459;DHT22;1241;50.920;6.936;2023-02-01T01:50:44;6.90;99.90
2459;DHT22;1241;50.920;6.936;2023-02-01T01:53:17;6.80;99.90
2459;DHT22;1241;50.920;6.936;2023-02-01T01:55:46;6.80;99.90
2459;DHT22;1241;50.920;6.936;2023-02-01T01:58:17;6.70;99.90
2459;DHT22;1241;50.920;6.936;2023-02-01T02:00:44;6.80;99.90
2459;DHT22;1241;50.920;6.936;2023-02-01T02:03:32;6.80;99.90
2459;DHT22;1241;50.920;6.936;2023-02-01T02:06:01;6.80;99.90
2459;DHT22;1241;50.920;6.936;2023-02-01T02:08:28;6.90;99.90
2459;DHT22;1241;50.920;6.936;2023-02-01T02:10:54;7.00;99.90
2459;DHT22;1241;50.920;6.936;2023-02-01T02:13:29;7.00;99.90
2459;DHT22;1241;50.920;6.936;2023-02-01T02:18:57;7.10;99.90
2459;DHT22;1241;50.920;6.936;2023-02-01T02:27:02;7.10;99.90
2459;DHT22;1241;50.920;6.936;2023-02-01T02:35:26;7.10;99.90
2459;DHT22;1241;50.920;6.936;2023-02-01T02:38:02;7.10;99.90
2459;DHT22;1241;50.920;6.936;2023-02-01T02:40:36;7.20;99.90
2459;DHT22;1241;50.920;6.936;2023-02-01T02:43:22;7.10;99.90
2459;DHT22;1241;50.920;6.936;2023-02-01T02:46:24;7.10;99.90
2459;DHT22;1241;50.920;6.936;2023-02-01T02:51:54;7.10;99.90
2459;DHT22;1241;50.920;6.936;2023-02-01T02:54:43;7.10;99.90
2459;DHT22;1241;50.920;6.936;2023-02-01T03:00:12;7.00;99.90
2459;DHT22;1241;50.920;6.936;2023-02-01T03:02:57;7.00;99.90
2459;DHT22;1241;50.920;6.936;2023-02-01T03:05:45;7.00;99.90
2459;DHT22;1241;50.920;6.936;2023-02-01T03:08:19;7.00;99.90
2459;DHT22;1241;50.920;6.936;2023-02-01T03:11:05;7.10;99.90
2459;DHT22;1241;50.920;6.936;2023-02-01T03:13:51;7.10;99.90
2459;DHT22;1241;50.920;6.936;2023-02-01T03:16:33;7.00;99.90
2459;DHT22;1241;50.920;6.936;2023-02-01T03:19:01;7.00;99.90
2459;DHT22;1241;50.920;6.936;2023-02-01T03:26:48;7.00;99.90
2459;DHT22;1241;50.920;6.936;2023-02-01T03:29:20;7.10;99.90
2459;DHT22;1241;50.920;6.936;2023-02-01T03:31:48;7.10;99.90
2459;DHT22;1241;50.920;6.936;2023-02-01T03:34:14;7.00;99.90
2459;DHT22;1241;50.920;6.936;2023-02-01T03:36:48;7.00;99.90
2459;DHT22;1241;50.920;6.936;2023-02-01T03:39:32;6.90;99.90
2459;DHT22;1241;50.920;6.936;2023-02-01T03:42:03;6.90;99.90
2459;DHT22;1241;50.920;6.936;2023-02-01T03:44:34;6.90;99.90
2459;DHT22;1241;50.920;6.936;2023-02-01T03:47:10;6.80;99.90
2459;DHT22;1241;50.920;6.936;2023-02-01T03:52:09;6.80;99.90
2459;DHT22;1241;50.920;6.936;2023-02-01T03:54:36;6.80;99.90
2459;DHT22;1241;50.920;6.936;2023-02-01T03:57:08;6.60;99.90
2459;DHT22;1241;50.920;6.936;2023-02-01T03:59:41;6.60;99.90
2459;DHT22;1241;50.920;6.936;2023-02-01T04:02:08;6.50;99.90
2459;DHT22;1241;50.920;6.936;2023-02-01T04:04:35;6.50;99.90
2459;DHT22;1241;50.920;6.936;2023-02-01T04:07:00;6.50;99.90
2459;DHT22;1241;50.920;6.936;2023-02-01T04:09:26;6.50;99.90
2459;DHT22;1241;50.920;6.936;2023-02-01T04:11:52;6.60;99.90
2459;DHT22;1241;50.920;6.936;2023-02-01T04:14:18;6.60;99.90
2459;DHT22;1241;50.920;6.936;2023-02-01T04:16:44;6.70;99.90
2459;DHT22;1241;50.920;6.936;2023-02-01T04:19:10;6.70;99.90
2459;DHT22;1241;50.920;6.936;2023-02-01T04:21:36;6.70;99.90
2459;DHT22;1241;50.920;6.936;2023-02-01T04:24:02;6.70;99.90
2459;DHT22;1241;50.920;6.936;2023-02-01T04:26:27;6.70;99.90
2459;DHT22;1241;50.920;6.936;2023-02-01T04:28:53;6.70;99.90
2459;DHT22;1241;50.920;6.936;2023-02-01T04:31:19;6.80;99.90
2459;DHT22;1241;50.920;6.936;2023-02-01T04:33:55;6.80;99.90
2459;DHT22;1241;50.920;6.936;2023-02-01T04:36:23;6.80;99.90
2459;DHT22;1241;50.920;6.936;2023-02-01T04:38:52;6.80;99.90
2459;DHT22;1241;50.920;6.936;2023-02-01T04:41:18;6.80;99.90
2459;DHT22;1241;50.920;6.936;2023-02-01T04:43:49;6.70;99.90
2459;DHT22;1241;50.920;6.936;2023-02-01T04:46:14;6.70;99.90
2459;DHT22;1241;50.920;6.936;2023-02-01T04:48:40;6.70;99.90
2459;DHT22;1241;50.920;6.936;2023-02-01T04:51:06;6.60;99.90
2459;DHT22;1241;50.920;6.936;2023-02-01T04:53:32;6.50;99.90
2459;DHT22;1241;50.920;6.936;2023-02-01T04:55:58;6.40;99.90
2459;DHT22;1241;50.920;6.936;2023-02-01T04:58:23;6.30;99.90
2459;DHT22;1241;50.920;6.936;2023-02-01T05:00:49;6.20;99.90
2459;DHT22;1241;50.920;6.936;2023-02-01T05:03:15;6.20;99.90
2459;DHT22;1241;50.920;6.936;2023-02-01T05:05:41;6.10;99.90
2459;DHT22;1241;50.920;6.936;2023-02-01T05:08:07;6.10;99.90
2459;DHT22;1241;50.920;6.936;2023-02-01T05:10:32;6.00;99.90
2459;DHT22;1241;50.920;6.936;2023-02-01T05:12:58;6.00;99.90
2459;DHT22;1241;50.920;6.936;2023-02-01T05:15:42;6.00;99.90
2459;DHT22;1241;50.920;6.936;2023-02-01T05:18:08;6.00;99.90
2459;DHT22;1241;50.920;6.936;2023-02-01T05:20:34;5.90;99.90
2459;DHT22;1241;50.920;6.936;2023-02-01T05:22:59;5.90;99.90
2459;DHT22;1241;50.920;6.936;2023-02-01T05:25:25;5.90;99.90
2459;DHT22;1241;50.920;6.936;2023-02-01T05:27:51;5.90;99.90
2459;DHT22;1241;50.920;6.936;2023-02-01T05:30:17;5.90;99.90
2459;DHT22;1241;50.920;6.936;2023-02-01T05:32:42;5.90;99.90
2459;DHT22;1241;50.920;6.936;2023-02-01T05:35:08;5.90;99.90
2459;DHT22;1241;50.920;6.936;2023-02-01T05:37:34;5.90;99.90
2459;DHT22;1241;50.920;6.936;2023-02-01T05:40:00;5.80;99.90
2459;DHT22;1241;50.920;6.936;2023-02-01T05:42:25;5.80;99.90
2459;DHT22;1241;50.920;6.936;2023-02-01T05:44:51;5.80;99.90
2459;DHT22;1241;50.920;6.936;2023-02-01T05:47:16;5.70;99.90
2459;DHT22;1241;50.920;6.936;2023-02-01T05:49:43;5.70;99.90
2459;DHT22;1241;50.920;6.936;2023-02-01T05:52:09;5.70;99.90
2459;DHT22;1241;50.920;6.936;2023-02-01T05:54:35;5.70;99.90
2459;DHT22;1241;50.920;6.936;2023-02-01T05:57:00;5.70;99.90
2459;DHT22;1241;50.920;6.936;2023-02-01T05:59:26;5.70;99.90
2459;DHT22;1241;50.920;6.936;2023-02-01T06:01:52;5.60;99.90
2459;DHT22;1241;50.920;6.936;2023-02-01T06:04:17;5.70;99.90
2459;DHT22;1241;50.920;6.936;2023-02-01T06:06:43;5.60;99.90
2459;DHT22;1241;50.920;6.936;2023-02-01T06:09:09;5.60;99.90
2459;DHT22;1241;50.920;6.936;2023-02-01T06:11:35;5.60;99.90
2459;DHT22;1241;50.920;6.936;2023-02-01T06:14:00;5.60;99.90
2459;DHT22;1241;50.920;6.936;2023-02-01T06:16:26;5.60;99.90
2459;DHT22;1241;50.920;6.936;2023-02-01T06:18:52;5.60;99.90
2459;DHT22;1241;50.920;6.936;2023-02-01T06:21:19;5.60;99.90
2459;DHT22;1241;50.920;6.936;2023-02-01T06:23:53;5.60;99.90
2459;DHT22;1241;50.920;6.936;2023-02-01T06:26:19;5.50;99.90
2459;DHT22;1241;50.920;6.936;2023-02-01T06:28:45;5.50;99.90
2459;DHT22;1241;50.920;6.936;2023-02-01T06:31:11;5.50;99.90
2459;DHT22;1241;50.920;6.936;2023-02-01T06:33:37;5.50;99.90
2459;DHT22;1241;50.920;6.936;2023-02-01T06:36:05;5.50;99.90
2459;DHT22;1241;50.920;6.936;2023-02-01T06:38:32;5.20;99.90
2459;DHT22;1241;50.920;6.936;2023-02-01T06:41:00;5.50;99.90
2459;DHT22;1241;50.920;6.936;2023-02-01T06:43:26;5.50;99.90
2459;DHT22;1241;50.920;6.936;2023-02-01T06:45:53;5.50;99.90
2459;DHT22;1241;50.920;6.936;2023-02-01T06:48:19;5.50;99.90
2459;DHT22;1241;50.920;6.936;2023-02-01T06:50:45;5.50;99.90
2459;DHT22;1241;50.920;6.936;2023-02-01T06:53:10;5.60;99.90
2459;DHT22;1241;50.920;6.936;2023-02-01T06:55:36;5.70;99.90
2459;DHT22;1241;50.920;6.936;2023-02-01T06:58:02;5.80;99.90
2459;DHT22;1241;50.920;6.936;2023-02-01T07:00:29;5.90;99.90
2459;DHT22;1241;50.920;6.936;2023-02-01T07:02:54;6.00;99.90
2459;DHT22;1241;50.920;6.936;2023-02-01T07:05:21;6.00;99.90
2459;DHT22;1241;50.920;6.936;2023-02-01T07:07:46;6.00;99.90
2459;DHT22;1241;50.920;6.936;2023-02-01T07:10:12;6.10;99.90
2459;DHT22;1241;50.920;6.936;2023-02-01T07:12:38;6.10;99.90
2459;DHT22;1241;50.920;6.936;2023-02-01T07:15:05;6.10;99.90
2459;DHT22;1241;50.920;6.936;2023-02-01T07:17:31;6.10;99.90
2459;DHT22;1241;50.920;6.936;2023-02-01T07:19:57;6.20;99.90
2459;DHT22;1241;50.920;6.936;2023-02-01T07:22:25;6.20;99.90
2459;DHT22;1241;50.920;6.936;2023-02-01T07:24:51;6.20;99.90
2459;DHT22;1241;50.920;6.936;2023-02-01T07:27:17;6.20;99.90
2459;DHT22;1241;50.920;6.936;2023-02-01T07:29:43;6.20;99.90
2459;DHT22;1241;50.920;6.936;2023-02-01T07:32:08;6.20;99.90
2459;DHT22;1241;50.920;6.936;2023-02-01T07:34:34;6.30;99.90
2459;DHT22;1241;50.920;6.936;2023-02-01T07:37:00;6.30;99.90
2459;DHT22;1241;50.920;6.936;2023-02-01T07:39:26;6.30;99.90
2459;DHT22;1241;50.920;6.936;2023-02-01T07:41:54;6.30;99.90
2459;DHT22;1241;50.920;6.936;2023-02-01T07:44:19;6.20;99.90
2459;DHT22;1241;50.920;6.936;2023-02-01T07:46:49;6.30;99.90
2459;DHT22;1241;50.920;6.936;2023-02-01T07:49:15;6.20;99.90
2459;DHT22;1241;50.920;6.936;2023-02-01T07:51:43;6.30;99.90
2459;DHT22;1241;50.920;6.936;2023-02-01T07:54:08;6.30;99.90
2459;DHT22;1241;50.920;6.936;2023-02-01T07:56:34;6.20;99.90
2459;DHT22;1241;50.920;6.936;2023-02-01T07:59:00;6.20;99.90
2459;DHT22;1241;50.920;6.936;2023-02-01T08:01:28;6.10;99.90
2459;DHT22;1241;50.920;6.936;2023-02-01T08:03:58;6.10;99.90
2459;DHT22;1241;50.920;6.936;2023-02-01T08:06:25;6.10;99.90
2459;DHT22;1241;50.920;6.936;2023-02-01T08:08:52;6.10;99.90
2459;DHT22;1241;50.920;6.936;2023-02-01T08:11:19;6.10;99.90
2459;DHT22;1241;50.920;6.936;2023-02-01T08:13:45;6.10;99.90
2459;DHT22;1241;50.920;6.936;2023-02-01T08:16:13;6.20;99.90
2459;DHT22;1241;50.920;6.936;2023-02-01T08:18:39;6.20;99.90
2459;DHT22;1241;50.920;6.936;2023-02-01T08:21:08;6.20;99.90
2459;DHT22;1241;50.920;6.936;2023-02-01T08:23:35;6.30;99.90
2459;DHT22;1241;50.920;6.936;2023-02-01T08:26:31;6.30;99.90
2459;DHT22;1241;50.920;6.936;2023-02-01T08:28:59;6.30;99.90
2459;DHT22;1241;50.920;6.936;2023-02-01T08:31:27;6.40;99.90
2459;DHT22;1241;50.920;6.936;2023-02-01T08:33:55;6.40;99.90
2459;DHT22;1241;50.920;6.936;2023-02-01T08:36:22;6.30;99.90
2459;DHT22;1241;50.920;6.936;2023-02-01T08:38:48;6.40;99.90
2459;DHT22;1241;50.920;6.936;2023-02-01T08:41:17;6.40;99.90
2459;DHT22;1241;50.920;6.936;2023-02-01T08:43:43;6.40;99.90
2459;DHT22;1241;50.920;6.936;2023-02-01T08:46:10;6.50;99.90
2459;DHT22;1241;50.920;6.936;2023-02-01T08:48:37;6.60;99.90
2459;DHT22;1241;50.920;6.936;2023-02-01T08:51:08;6.60;99.90
2459;DHT22;1241;50.920;6.936;2023-02-01T08:53:34;6.70;99.90
2459;DHT22;1241;50.920;6.936;2023-02-01T08:56:01;6.80;99.90
2459;DHT22;1241;50.920;6.936;2023-02-01T08:58:27;6.90;99.90
2459;DHT22;1241;50.920;6.936;2023-02-01T09:00:53;7.00;99.90
2459;DHT22;1241;50.920;6.936;2023-02-01T09:03:18;7.00;99.90
2459;DHT22;1241;50.920;6.936;2023-02-01T09:05:44;7.10;99.90
2459;DHT22;1241;50.920;6.936;2023-02-01T09:08:11;7.20;99.90
2459;DHT22;1241;50.920;6.936;2023-02-01T09:10:41;7.20;99.90
2459;DHT22;1241;50.920;6.936;2023-02-01T09:13:07;7.30;99.90
2459;DHT22;1241;50.920;6.936;2023-02-01T09:15:34;7.20;99.90
2459;DHT22;1241;50.920;6.936;2023-02-01T09:18:00;7.30;99.90
2459;DHT22;1241;50.920;6.936;2023-02-01T09:20:25;7.40;99.90
2459;DHT22;1241;50.920;6.936;2023-02-01T09:22:52;7.50;99.90
2459;DHT22;1241;50.920;6.936;2023-02-01T09:25:18;7.60;99.90
2459;DHT22;1241;50.920;6.936;2023-02-01T09:27:44;7.70;99.90
2459;DHT22;1241;50.920;6.936;2023-02-01T09:30:10;7.60;99.90
2459;DHT22;1241;50.920;6.936;2023-02-01T09:32:36;7.60;99.90
2459;DHT22;1241;50.920;6.936;2023-02-01T09:35:02;7.50;99.90
2459;DHT22;1241;50.920;6.936;2023-02-01T09:37:27;7.40;99.90
2459;DHT22;1241;50.920;6.936;2023-02-01T09:39:53;7.30;99.90
2459;DHT22;1241;50.920;6.936;2023-02-01T09:45:38;7.20;99.90
2459;DHT22;1241;50.920;6.936;2023-02-01T09:48:15;7.30;99.90
2459;DHT22;1241;50.920;6.936;2023-02-01T09:50:45;7.50;99.90
2459;DHT22;1241;50.920;6.936;2023-02-01T09:55:53;7.80;99.90
2459;DHT22;1241;50.920;6.936;2023-02-01T09:58:25;8.00;99.90
2459;DHT22;1241;50.920;6.936;2023-02-01T10:00:58;8.20;99.90
2459;DHT22;1241;50.920;6.936;2023-02-01T10:03:26;8.30;99.90
2459;DHT22;1241;50.920;6.936;2023-02-01T10:27:38;7.40;99.90
2459;DHT22;1241;50.920;6.936;2023-02-01T10:30:28;7.50;99.90
2459;DHT22;1241;50.920;6.936;2023-02-01T10:35:38;7.60;99.90
2459;DHT22;1241;50.920;6.936;2023-02-01T10:38:16;7.60;99.90
2459;DHT22;1241;50.920;6.936;2023-02-01T10:40:44;7.70;99.90
2459;DHT22;1241;50.920;6.936;2023-02-01T10:43:09;7.70;99.90
2459;DHT22;1241;50.920;6.936;2023-02-01T10:45:37;7.70;99.90
2459;DHT22;1241;50.920;6.936;2023-02-01T10:48:07;7.70;99.90
2459;DHT22;1241;50.920;6.936;2023-02-01T10:50:59;7.90;99.90
2459;DHT22;1241;50.920;6.936;2023-02-01T10:53:34;8.00;99.90
2459;DHT22;1241;50.920;6.936;2023-02-01T10:56:10;8.20;99.90
2459;DHT22;1241;50.920;6.936;2023-02-01T10:58:46;8.20;99.90
2459;DHT22;1241;50.920;6.936;2023-02-01T11:04:19;8.60;99.90
2459;DHT22;1241;50.920;6.936;2023-02-01T11:06:48;8.70;99.90
2459;DHT22;1241;50.920;6.936;2023-02-01T11:09:21;8.80;99.90
2459;DHT22;1241;50.920;6.936;2023-02-01T11:17:00;8.60;99.90
2459;DHT22;1241;50.920;6.936;2023-02-01T11:19:27;8.60;99.90
2459;DHT22;1241;50.920;6.936;2023-02-01T11:21:57;8.60;99.90
2459;DHT22;1241;50.920;6.936;2023-02-01T11:24:26;8.50;99.90
2459;DHT22;1241;50.920;6.936;2023-02-01T11:26:56;8.50;99.90
2459;DHT22;1241;50.920;6.936;2023-02-01T11:29:23;8.50;99.90
2459;DHT22;1241;50.920;6.936;2023-02-01T11:31:56;8.60;99.90
2459;DHT22;1241;50.920;6.936;2023-02-01T11:34:30;8.50;99.90
2459;DHT22;1241;50.920;6.936;2023-02-01T11:37:00;8.50;99.90
2459;DHT22;1241;50.920;6.936;2023-02-01T11:39:31;8.50;99.90
2459;DHT22;1241;50.920;6.936;2023-02-01T11:42:16;8.50;99.90
2459;DHT22;1241;50.920;6.936;2023-02-01T11:44:44;8.60;99.90
2459;DHT22;1241;50.920;6.936;2023-02-01T11:47:29;8.70;99.90
2459;DHT22;1241;50.920;6.936;2023-02-01T11:50:03;8.90;99.90
2459;DHT22;1241;50.920;6.936;2023-02-01T12:00:51;9.10;99.90
2459;DHT22;1241;50.920;6.936;2023-02-01T12:11:44;8.80;99.90
2459;DHT22;1241;50.920;6.936;2023-02-01T12:14:28;8.80;99.90
2459;DHT22;1241;50.920;6.936;2023-02-01T12:25:20;8.70;99.90
2459;DHT22;1241;50.920;6.936;2023-02-01T12:28:03;8.60;99.90
2459;DHT22;1241;50.920;6.936;2023-02-01T12:36:21;8.50;99.90
2459;DHT22;1241;50.920;6.936;2023-02-01T12:44:44;8.90;99.90
2459;DHT22;1241;50.920;6.936;2023-02-01T12:47:31;9.10;99.90
2459;DHT22;1241;50.920;6.936;2023-02-01T12:50:22;9.10;99.90
2459;DHT22;1241;50.920;6.936;2023-02-01T12:52:52;9.10;99.90
2459;DHT22;1241;50.920;6.936;2023-02-01T12:58:21;8.90;99.90
2459;DHT22;1241;50.920;6.936;2023-02-01T13:01:03;8.70;99.90
2459;DHT22;1241;50.920;6.936;2023-02-01T13:04:11;8.70;99.90
2459;DHT22;1241;50.920;6.936;2023-02-01T13:06:51;8.60;99.90
2459;DHT22;1241;50.920;6.936;2023-02-01T13:09:30;8.50;99.90
2459;DHT22;1241;50.920;6.936;2023-02-01T13:12:00;8.40;99.90
2459;DHT22;1241;50.920;6.936;2023-02-01T13:14:52;8.40;99.90
2459;DHT22;1241;50.920;6.936;2023-02-01T13:17:25;8.40;99.90
2459;DHT22;1241;50.920;6.936;2023-02-01T13:20:06;8.40;99.90
2459;DHT22;1241;50.920;6.936;2023-02-01T13:22:39;8.30;99.90
2459;DHT22;1241;50.920;6.936;2023-02-01T13:25:18;8.30;99.90
2459;DHT22;1241;50.920;6.936;2023-02-01T13:27:45;8.30;99.90
2459;DHT22;1241;50.920;6.936;2023-02-01T13:30:18;8.30;99.90
2459;DHT22;1241;50.920;6.936;2023-02-01T13:43:55;8.50;99.90
2459;DHT22;1241;50.920;6.936;2023-02-01T13:46:22;8.50;99.90
2459;DHT22;1241;50.920;6.936;2023-02-01T13:48:57;8.40;99.90
2459;DHT22;1241;50.920;6.936;2023-02-01T13:51:45;8.30;99.90
2459;DHT22;1241;50.920;6.936;2023-02-01T13:54:32;8.40;99.90
2459;DHT22;1241;50.920;6.936;2023-02-01T13:57:00;8.40;99.90
2459;DHT22;1241;50.920;6.936;2023-02-01T14:05:01;8.40;99.90
2459;DHT22;1241;50.920;6.936;2023-02-01T14:07:27;8.40;99.90
2459;DHT22;1241;50.920;6.936;2023-02-01T14:09:54;8.40;99.90
2459;DHT22;1241;50.920;6.936;2023-02-01T14:12:46;8.40;99.90
2459;DHT22;1241;50.920;6.936;2023-02-01T14:15:20;8.40;99.90
2459;DHT22;1241;50.920;6.936;2023-02-01T14:17:48;8.40;99.90
2459;DHT22;1241;50.920;6.936;2023-02-01T14:20:39;8.50;99.90
2459;DHT22;1241;50.920;6.936;2023-02-01T14:23:12;8.50;99.90
2459;DHT22;1241;50.920;6.936;2023-02-01T14:25:39;8.50;99.90
2459;DHT22;1241;50.920;6.936;2023-02-01T14:28:31;8.60;99.90
2459;DHT22;1241;50.920;6.936;2023-02-01T14:30:58;8.60;99.90
2459;DHT22;1241;50.920;6.936;2023-02-01T14:33:27;8.60;99.90
2459;DHT22;1241;50.920;6.936;2023-02-01T14:36:10;8.60;99.90
2459;DHT22;1241;50.920;6.936;2023-02-01T14:38:38;8.60;99.90
2459;DHT22;1241;50.920;6.936;2023-02-01T14:41:30;8.70;99.90
2459;DHT22;1241;50.920;6.936;2023-02-01T14:47:06;8.70;99.90
2459;DHT22;1241;50.920;6.936;2023-02-01T14:49:33;8.60;99.90
2459;DHT22;1241;50.920;6.936;2023-02-01T14:52:16;8.60;99.90
2459;DHT22;1241;50.920;6.936;2023-02-01T14:54:46;8.60;99.90
2459;DHT22;1241;50.920;6.936;2023-02-01T14:57:20;8.60;99.90
2459;DHT22;1241;50.920;6.936;2023-02-01T14:59:46;8.60;99.90
2459;DHT22;1241;50.920;6.936;2023-02-01T15:02:23;8.60;99.90
2459;DHT22;1241;50.920;6.936;2023-02-01T15:04:55;8.60;99.90
2459;DHT22;1241;50.920;6.936;2023-02-01T15:07:23;8.60;99.90
2459;DHT22;1241;50.920;6.936;2023-02-01T15:09:51;8.70;99.90
2459;DHT22;1241;50.920;6.936;2023-02-01T15:12:27;8.60;99.90
2459;DHT22;1241;50.920;6.936;2023-02-01T15:15:22;8.70;99.90
2459;DHT22;1241;50.920;6.936;2023-02-01T15:17:54;8.70;99.90
2459;DHT22;1241;50.920;6.936;2023-02-01T15:20:22;8.60;99.90
2459;DHT22;1241;50.920;6.936;2023-02-01T15:23:00;8.60;99.90
2459;DHT22;1241;50.920;6.936;2023-02-01T15:25:30;8.60;99.90
2459;DHT22;1241;50.920;6.936;2023-02-01T15:27:56;8.60;99.90
2459;DHT22;1241;50.920;6.936;2023-02-01T15:30:28;8.60;99.90
2459;DHT22;1241;50.920;6.936;2023-02-01T15:33:07;8.60;99.90
2459;DHT22;1241;50.920;6.936;2023-02-01T15:35:42;8.60;99.90
2459;DHT22;1241;50.920;6.936;2023-02-01T15:38:42;8.60;99.90
2459;DHT22;1241;50.920;6.936;2023-02-01T15:41:19;8.60;99.90
2459;DHT22;1241;50.920;6.936;2023-02-01T15:46:14;8.60;99.90
2459;DHT22;1241;50.920;6.936;2023-02-01T15:48:46;8.60;99.90
2459;DHT22;1241;50.920;6.936;2023-02-01T15:51:16;8.60;99.90
2459;DHT22;1241;50.920;6.936;2023-02-01T15:53:48;8.60;99.90
2459;DHT22;1241;50.920;6.936;2023-02-01T15:56:16;8.50;99.90
2459;DHT22;1241;50.920;6.936;2023-02-01T15:58:50;8.60;99.90
2459;DHT22;1241;50.920;6.936;2023-02-01T16:01:17;8.70;99.90
2459;DHT22;1241;50.920;6.936;2023-02-01T16:03:44;8.70;99.90
2459;DHT22;1241;50.920;6.936;2023-02-01T16:08:51;8.60;99.90
2459;DHT22;1241;50.920;6.936;2023-02-01T16:13:56;8.60;99.90
2459;DHT22;1241;50.920;6.936;2023-02-01T16:16:23;8.60;99.90
2459;DHT22;1241;50.920;6.936;2023-02-01T16:18:48;8.60;99.90
2459;DHT22;1241;50.920;6.936;2023-02-01T16:21:14;8.60;99.90
2459;DHT22;1241;50.920;6.936;2023-02-01T16:23:40;8.50;99.90
2459;DHT22;1241;50.920;6.936;2023-02-01T16:26:06;8.40;99.90
2459;DHT22;1241;50.920;6.936;2023-02-01T16:28:32;8.30;99.90
2459;DHT22;1241;50.920;6.936;2023-02-01T16:30:59;8.20;99.90
2459;DHT22;1241;50.920;6.936;2023-02-01T16:33:25;8.10;99.90
2459;DHT22;1241;50.920;6.936;2023-02-01T16:35:52;8.00;99.90
2459;DHT22;1241;50.920;6.936;2023-02-01T16:38:21;8.00;99.90
2459;DHT22;1241;50.920;6.936;2023-02-01T16:40:49;7.90;99.90
2459;DHT22;1241;50.920;6.936;2023-02-01T16:43:17;7.80;99.90
2459;DHT22;1241;50.920;6.936;2023-02-01T16:45:44;7.80;99.90
2459;DHT22;1241;50.920;6.936;2023-02-01T16:48:34;7.70;99.90
2459;DHT22;1241;50.920;6.936;2023-02-01T16:51:03;7.70;99.90
2459;DHT22;1241;50.920;6.936;2023-02-01T16:53:30;7.60;99.90
2459;DHT22;1241;50.920;6.936;2023-02-01T16:55:57;7.60;99.90
2459;DHT22;1241;50.920;6.936;2023-02-01T16:58:24;7.60;99.90
2459;DHT22;1241;50.920;6.936;2023-02-01T17:00:50;7.60;99.90
2459;DHT22;1241;50.920;6.936;2023-02-01T17:03:18;7.60;99.90
2459;DHT22;1241;50.920;6.936;2023-02-01T17:05:52;7.60;99.90
2459;DHT22;1241;50.920;6.936;2023-02-01T17:08:36;7.60;99.90
2459;DHT22;1241;50.920;6.936;2023-02-01T17:11:03;7.60;99.90
2459;DHT22;1241;50.920;6.936;2023-02-01T17:13:29;7.60;99.90
2459;DHT22;1241;50.920;6.936;2023-02-01T17:16:04;7.60;99.90
2459;DHT22;1241;50.920;6.936;2023-02-01T17:18:34;7.60;99.90
2459;DHT22;1241;50.920;6.936;2023-02-01T17:21:01;7.60;99.90
2459;DHT22;1241;50.920;6.936;2023-02-01T17:23:29;7.60;99.90
2459;DHT22;1241;50.920;6.936;2023-02-01T17:25:55;7.60;99.90
2459;DHT22;1241;50.920;6.936;2023-02-01T17:28:21;7.60;99.90
2459;DHT22;1241;50.920;6.936;2023-02-01T17:30:47;7.60;99.90
2459;DHT22;1241;50.920;6.936;2023-02-01T17:33:32;7.60;99.90
2459;DHT22;1241;50.920;6.936;2023-02-01T17:35:58;7.60;99.90
2459;DHT22;1241;50.920;6.936;2023-02-01T17:38:24;7.60;99.90
2459;DHT22;1241;50.920;6.936;2023-02-01T17:40:50;7.60;99.90
2459;DHT22;1241;50.920;6.936;2023-02-01T17:43:20;7.60;99.90
2459;DHT22;1241;50.920;6.936;2023-02-01T17:45:54;7.60;99.90
2459;DHT22;1241;50.920;6.936;2023-02-01T17:48:21;7.60;99.90
2459;DHT22;1241;50.920;6.936;2023-02-01T17:50:49;7.50;99.90
2459;DHT22;1241;50.920;6.936;2023-02-01T17:53:24;7.60;99.90
2459;DHT22;1241;50.920;6.936;2023-02-01T17:55:50;7.60;99.90
2459;DHT22;1241;50.920;6.936;2023-02-01T17:58:17;7.60;99.90
2459;DHT22;1241;50.920;6.936;2023-02-01T18:00:45;7.60;99.90
2459;DHT22;1241;50.920;6.936;2023-02-01T18:03:26;7.60;99.90
2459;DHT22;1241;50.920;6.936;2023-02-01T18:05:54;7.60;99.90
2459;DHT22;1241;50.920;6.936;2023-02-01T18:08:26;7.60;99.90
2459;DHT22;1241;50.920;6.936;2023-02-01T18:10:57;7.60;99.90
2459;DHT22;1241;50.920;6.936;2023-02-01T18:13:27;7.60;99.90
2459;DHT22;1241;50.920;6.936;2023-02-01T18:15:53;7.60;99.90
2459;DHT22;1241;50.920;6.936;2023-02-01T18:18:18;7.70;99.90
2459;DHT22;1241;50.920;6.936;2023-02-01T18:20:45;7.70;99.90
2459;DHT22;1241;50.920;6.936;2023-02-01T18:23:16;7.70;99.90
2459;DHT22;1241;50.920;6.936;2023-02-01T18:25:43;7.70;99.90
2459;DHT22;1241;50.920;6.936;2023-02-01T18:28:10;7.70;99.90
2459;DHT22;1241;50.920;6.936;2023-02-01T18:30:35;7.70;99.90
2459;DHT22;1241;50.920;6.936;2023-02-01T18:33:02;7.70;99.90
2459;DHT22;1241;50.920;6.936;2023-02-01T18:35:31;7.80;99.90
2459;DHT22;1241;50.920;6.936;2023-02-01T18:37:58;7.70;99.90
2459;DHT22;1241;50.920;6.936;2023-02-01T18:40:30;7.80;99.90
2459;DHT22;1241;50.920;6.936;2023-02-01T18:42:57;7.80;99.90
2459;DHT22;1241;50.920;6.936;2023-02-01T18:45:56;7.80;99.90
2459;DHT22;1241;50.920;6.936;2023-02-01T18:48:16;7.80;99.90